Time;durP1;ratioP1;P1;durP2;ratioP2;P2;SDS_P1;SDS_P2;PMS_P1;PMS_P2;Temp;Humidity;BMP_temperature;BMP_pressure;BME280_temperature;BME280_humidity;BME280_pressure;Samples;Min_cycle;Max_cycle;Signal;HPM_P1;HPM_P2
2023/01/24 00:01:03;;;;;;;;;;;;;;;17.99;63.78;103254.95;2376112;74;50196;-76
2023/01/24 00:04:05;;;;;;;;;;;;;;;17.96;63.78;103251.66;2392723;74;50149;-76
2023/01/24 00:07:06;;;;;;;;;;;;;;;17.94;63.86;103253.59;2365325;74;52275;-77
2023/01/24 00:10:08;;;;;;;;;;;;;;;17.91;63.87;103250.66;2337513;74;50170;-76
2023/01/24 00:13:10;;;;;;;;;;;;;;;17.87;64.07;103255.86;2324645;76;50573;-76
2023/01/24 00:16:19;;;;;;;;;;;;;;;17.91;63.83;103252.48;2344495;76;50391;-76
2023/01/24 00:19:20;;;;;;;;;;;;;;;17.89;63.83;103260.63;2333260;75;50485;-76
2023/01/24 00:22:22;;;;;;;;;;;;;;;17.86;63.78;103251.48;2344376;76;50326;-76
2023/01/24 00:25:24;;;;;;;;;;;;;;;17.83;63.77;103256.59;2344875;74;50219;-76
2023/01/24 00:28:25;;;;;;;;;;;;;;;17.80;63.87;103250.13;2350884;74;50225;-76
2023/01/24 00:31:27;;;;;;;;;;;;;;;17.77;63.93;103255.65;2346748;75;51636;-76
2023/01/24 00:34:28;;;;;;;;;;;;;;;17.76;63.90;103246.41;2323025;76;51303;-76
2023/01/24 00:37:30;;;;;;;;;;;;;;;17.76;63.76;103251.28;2336514;76;52375;-76
2023/01/24 00:40:31;;;;;;;;;;;;;;;17.76;63.78;103251.77;2325273;75;51408;-76
2023/01/24 00:43:33;;;;;;;;;;;;;;;17.74;63.80;103249.19;2324454;76;51011;-77
2023/01/24 00:46:34;;;;;;;;;;;;;;;17.73;63.81;103250.66;2324779;76;50269;-77
2023/01/24 00:49:36;;;;;;;;;;;;;;;17.71;63.82;103254.78;2344719;76;50239;-77
2023/01/24 00:52:38;;;;;;;;;;;;;;;17.70;63.99;103254.88;2344368;76;50673;-77
2023/01/24 00:55:43;;;;;;;;;;;;;;;17.69;64.02;103247.83;2324633;76;50021;-77
2023/01/24 00:58:44;;;;;;;;;;;;;;;17.69;63.97;103249.17;2350887;74;50633;-77
2023/01/24 01:01:46;;;;;;;;;;;;;;;17.68;63.99;103242.11;2355767;74;51482;-76
2023/01/24 01:04:48;;;;;;;;;;;;;;;17.64;64.01;103248.16;2344489;76;50683;-76
2023/01/24 01:07:49;;;;;;;;;;;;;;;17.66;63.90;103242.22;2324614;76;50201;-76
2023/01/24 01:10:51;;;;;;;;;;;;;;;17.64;63.90;103251.69;2359550;74;50331;-76
2023/01/24 01:13:54;;;;;;;;;;;;;;;17.63;63.94;103252.67;2385640;74;50245;-77
2023/01/24 01:16:56;;;;;;;;;;;;;;;17.63;63.91;103251.33;2358824;74;51493;-77
2023/01/24 01:19:58;;;;;;;;;;;;;;;17.62;63.89;103246.95;2351757;75;50987;-76
2023/01/24 01:23:00;;;;;;;;;;;;;;;17.63;63.77;103251.33;2344494;76;51557;-76
2023/01/24 01:26:02;;;;;;;;;;;;;;;17.62;63.78;103257.66;2351617;74;53079;-77
2023/01/24 01:29:03;;;;;;;;;;;;;;;17.60;63.87;103255.58;2344567;76;50636;-77
2023/01/24 01:32:05;;;;;;;;;;;;;;;17.60;63.84;103262.27;2344818;75;52570;-77
2023/01/24 01:35:07;;;;;;;;;;;;;;;17.59;63.77;103255.19;2299281;74;52176;-76
2023/01/24 01:38:08;;;;;;;;;;;;;;;17.60;63.79;103260.09;2346502;74;50686;-76
2023/01/24 01:41:11;;;;;;;;;;;;;;;17.58;63.88;103259.34;2324863;76;51486;-76
2023/01/24 01:44:38;;;;;;;;;;;;;;;17.56;63.73;103258.09;2327672;74;49646;-77
2023/01/24 01:47:25;;;;;;;;;;;;;;;17.54;63.67;103263.19;2349070;74;22472;-76
2023/01/24 01:50:28;;;;;;;;;;;;;;;17.54;63.74;103272.07;2352481;74;50635;-77
2023/01/24 01:53:32;;;;;;;;;;;;;;;17.53;63.77;103267.70;2344377;76;51498;-76
2023/01/24 01:56:35;;;;;;;;;;;;;;;17.53;63.69;103269.03;2362226;74;52566;-77
2023/01/24 01:59:38;;;;;;;;;;;;;;;17.53;63.60;103265.02;2347480;74;50281;-77
2023/01/24 02:02:41;;;;;;;;;;;;;;;17.52;63.61;103263.32;2385890;74;50164;-76
2023/01/24 02:05:42;;;;;;;;;;;;;;;17.51;63.67;103261.59;2371296;74;51504;-76
2023/01/24 02:08:44;;;;;;;;;;;;;;;17.49;63.71;103266.20;2325072;76;51664;-76
2023/01/24 02:11:46;;;;;;;;;;;;;;;17.48;63.75;103275.20;2346018;74;50418;-76
2023/01/24 02:18:08;;;;;;;;;;;;;;;17.45;63.77;103275.44;2369178;74;22291;-76
2023/01/24 02:21:11;;;;;;;;;;;;;;;17.44;63.72;103275.53;2389979;74;52362;-76
2023/01/24 02:24:14;;;;;;;;;;;;;;;17.43;63.63;103270.67;2386144;74;50735;-76
2023/01/24 02:27:16;;;;;;;;;;;;;;;17.43;63.64;103276.02;2360196;74;50624;-76
2023/01/24 02:30:17;;;;;;;;;;;;;;;17.41;63.64;103271.26;2363974;74;50408;-76
2023/01/24 02:33:19;;;;;;;;;;;;;;;17.39;63.64;103275.41;2349056;75;50334;-76
2023/01/24 02:36:23;;;;;;;;;;;;;;;17.40;63.60;103278.92;2344513;76;50221;-76
2023/01/24 02:39:29;;;;;;;;;;;;;;;17.37;63.59;103276.48;2344546;75;50619;-76
2023/01/24 02:42:32;;;;;;;;;;;;;;;17.37;63.63;103276.48;2344290;75;51552;-76
2023/01/24 02:45:34;;;;;;;;;;;;;;;17.37;63.58;103277.33;2357660;74;51658;-76
2023/01/24 02:48:35;;;;;;;;;;;;;;;17.36;63.65;103280.11;2345157;74;51402;-77
2023/01/24 02:54:57;;;;;;;;;;;;;;;17.34;63.70;103274.00;2385828;74;22448;-76
2023/01/24 02:58:07;;;;;;;;;;;;;;;17.34;63.63;103274.00;2392464;74;52590;-76
2023/01/24 03:01:08;;;;;;;;;;;;;;;17.33;63.69;103280.33;2375397;74;51546;-76
2023/01/24 03:04:11;;;;;;;;;;;;;;;17.32;63.67;103281.31;2351715;74;50236;-76
2023/01/24 03:07:13;;;;;;;;;;;;;;;17.32;63.74;103274.62;2309515;75;50272;-76
2023/01/24 03:10:15;;;;;;;;;;;;;;;17.29;63.83;103266.78;2309351;76;49893;-76
2023/01/24 03:36:33;;;;;;;;;;;;;;;17.23;63.45;103276.11;2321936;76;22456;-76
2023/01/24 03:42:54;;;;;;;;;;;;;;;17.24;63.33;103279.64;2311341;76;22557;-76
2023/01/24 03:45:56;;;;;;;;;;;;;;;17.20;63.27;103274.52;2309770;76;51753;-77
2023/01/24 03:48:57;;;;;;;;;;;;;;;17.20;63.25;103274.52;2317561;76;51588;-76
2023/01/24 03:55:18;;;;;;;;;;;;;;;17.19;63.25;103266.13;2313414;75;22460;-76
2023/01/24 03:58:20;;;;;;;;;;;;;;;17.16;63.21;103263.67;2338759;74;52326;-76
2023/01/24 04:01:21;;;;;;;;;;;;;;;17.18;63.31;103262.21;2308958;76;51611;-77
2023/01/24 04:04:23;;;;;;;;;;;;;;;17.19;63.23;103267.95;2323369;75;51463;-76
2023/01/24 04:07:25;;;;;;;;;;;;;;;17.17;63.29;103268.05;2338947;74;51448;-77
2023/01/24 04:10:26;;;;;;;;;;;;;;;17.15;63.32;103263.28;2357662;75;51640;-77
2023/01/24 04:13:28;;;;;;;;;;;;;;;17.16;63.29;103256.98;2334011;75;52217;-77
2023/01/24 04:16:29;;;;;;;;;;;;;;;17.14;63.25;103256.23;2328393;76;51411;-76
2023/01/24 04:19:31;;;;;;;;;;;;;;;17.15;63.18;103259.27;2309390;76;51625;-76
2023/01/24 04:22:32;;;;;;;;;;;;;;;17.14;63.20;103257.58;2321170;75;51371;-76
2023/01/24 04:25:34;;;;;;;;;;;;;;;17.12;63.21;103258.65;2309081;75;50254;-76
2023/01/24 04:28:36;;;;;;;;;;;;;;;17.14;63.22;103266.09;2345889;74;50289;-76
2023/01/24 04:31:37;;;;;;;;;;;;;;;17.13;63.17;103265.20;2309319;76;49944;-77
2023/01/24 04:34:39;;;;;;;;;;;;;;;17.11;63.17;103267.16;2339285;75;50590;-77
2023/01/24 04:37:40;;;;;;;;;;;;;;;17.12;63.22;103264.85;2358365;74;52475;-74
2023/01/24 04:40:42;;;;;;;;;;;;;;;17.09;63.30;103263.73;2343636;75;51492;-77
2023/01/24 04:43:43;;;;;;;;;;;;;;;17.08;63.39;103264.68;2332464;75;51404;-77
2023/01/24 04:46:45;;;;;;;;;;;;;;;17.08;63.32;103257.99;2346774;75;51414;-77
2023/01/24 04:49:47;;;;;;;;;;;;;;;17.07;63.38;103256.30;2334125;75;51143;-77
2023/01/24 04:52:48;;;;;;;;;;;;;;;17.07;63.35;103248.27;2359140;75;50060;-77
2023/01/24 04:55:50;;;;;;;;;;;;;;;17.07;63.30;103243.41;2316184;76;50107;-76
2023/01/24 04:58:51;;;;;;;;;;;;;;;17.06;63.20;103248.37;2309964;76;50632;-76
2023/01/24 05:01:53;;;;;;;;;;;;;;;17.07;63.17;103254.11;2283401;76;52523;-76
2023/01/24 05:04:54;;;;;;;;;;;;;;;17.06;63.26;103247.03;2309176;76;51452;-77
2023/01/24 05:07:56;;;;;;;;;;;;;;;17.03;63.34;103253.48;2338278;75;51420;-77
2023/01/24 05:10:59;;;;;;;;;;;;;;;17.03;63.24;103249.47;2361771;75;51359;-76
2023/01/24 05:14:01;;;;;;;;;;;;;;;17.02;63.28;103246.41;2347140;75;52506;-77
2023/01/24 05:17:02;;;;;;;;;;;;;;;16.99;63.32;103249.30;2346912;74;50326;-77
2023/01/24 05:20:04;;;;;;;;;;;;;;;17.01;63.25;103251.40;2376511;74;49908;-77
2023/01/24 05:23:06;;;;;;;;;;;;;;;17.04;63.22;103255.67;2375840;74;50058;-77
2023/01/24 05:26:07;;;;;;;;;;;;;;;17.03;63.27;103254.83;2348694;75;49557;-77
2023/01/24 05:29:09;;;;;;;;;;;;;;;17.02;63.22;103254.43;2359373;75;50304;-74
2023/01/24 05:32:10;;;;;;;;;;;;;;;17.03;63.23;103247.25;2361374;74;50652;-72
2023/01/24 05:35:12;;;;;;;;;;;;;;;16.95;62.55;103254.48;2357521;74;51876;-72
2023/01/24 05:38:14;;;;;;;;;;;;;;;16.91;62.58;103255.69;2332677;74;50069;-72
2023/01/24 05:41:17;;;;;;;;;;;;;;;16.90;62.85;103250.83;2321446;76;50617;-75
2023/01/24 05:44:18;;;;;;;;;;;;;;;16.90;63.05;103251.28;2335946;75;51621;-73
2023/01/24 05:47:20;;;;;;;;;;;;;;;16.88;62.85;103253.23;2340100;75;50607;-73
2023/01/24 05:50:21;;;;;;;;;;;;;;;16.90;62.69;103253.95;2338510;75;51007;-73
2023/01/24 05:53:23;;;;;;;;;;;;;;;16.86;62.31;103249.31;2376109;74;51447;-72
2023/01/24 05:56:25;;;;;;;;;;;;;;;16.88;63.18;103263.93;2359980;75;51402;-72
2023/01/24 05:59:26;;;;;;;;;;;;;;;16.88;63.39;103262.59;2325384;75;51501;-72
2023/01/24 06:02:28;;;;;;;;;;;;;;;16.87;63.21;103268.89;2323307;76;49993;-72
2023/01/24 06:05:30;;;;;;;;;;;;;;;16.86;62.97;103272.05;2350026;75;50352;-74
2023/01/24 06:08:31;;;;;;;;;;;;;;;16.85;63.10;103282.38;2351544;74;50335;-73
2023/01/24 06:11:33;;;;;;;;;;;;;;;16.84;63.01;103275.80;2346884;74;50588;-73
2023/01/24 06:14:34;;;;;;;;;;;;;;;16.83;62.96;103276.77;2349790;75;52338;-74
2023/01/24 06:17:36;;;;;;;;;;;;;;;16.82;63.03;103285.25;2349478;74;51548;-73
2023/01/24 06:20:38;;;;;;;;;;;;;;;16.84;63.14;103285.16;2353069;74;51361;-73
2023/01/24 06:23:39;;;;;;;;;;;;;;;16.88;64.48;103286.66;2349885;75;51417;-73
2023/01/24 06:26:41;;;;;;;;;;;;;;;16.90;64.26;103285.59;2327637;74;51611;-73
2023/01/24 06:29:43;;;;;;;;;;;;;;;16.90;64.22;103292.28;2392728;74;50032;-72
2023/01/24 06:32:49;;;;;;;;;;;;;;;16.90;63.72;103294.07;2383136;74;50608;-72
2023/01/24 06:35:52;;;;;;;;;;;;;;;16.94;63.30;103297.77;2385888;74;51541;-73
2023/01/24 06:38:54;;;;;;;;;;;;;;;17.00;63.25;103303.65;2352197;74;52468;-72
2023/01/24 06:41:55;;;;;;;;;;;;;;;17.07;63.07;103299.09;2386007;74;50118;-73
2023/01/24 06:44:57;;;;;;;;;;;;;;;17.11;62.97;103303.73;2349856;74;50676;-72
2023/01/24 06:47:59;;;;;;;;;;;;;;;17.16;62.88;103311.84;2362211;74;53592;-73
2023/01/24 06:51:00;;;;;;;;;;;;;;;17.22;62.66;103308.35;2352726;74;50940;-72
2023/01/24 06:54:02;;;;;;;;;;;;;;;17.25;62.71;103316.16;2363655;74;50040;-74
2023/01/24 06:57:03;;;;;;;;;;;;;;;17.28;62.70;103317.27;2367912;74;49924;-74
2023/01/24 07:00:05;;;;;;;;;;;;;;;17.30;62.63;103327.39;2360756;74;50341;-75
2023/01/24 07:03:07;;;;;;;;;;;;;;;17.29;62.72;103322.52;2378973;74;50218;-76
2023/01/24 07:06:09;;;;;;;;;;;;;;;17.27;62.71;103329.80;2350053;74;52147;-75
2023/01/24 07:09:10;;;;;;;;;;;;;;;17.31;62.58;103329.94;2369927;74;50299;-75
2023/01/24 07:12:12;;;;;;;;;;;;;;;17.31;62.44;103327.75;2385801;74;51554;-76
2023/01/24 07:15:13;;;;;;;;;;;;;;;17.27;62.49;103340.99;2370216;74;52339;-76
2023/01/24 07:18:16;;;;;;;;;;;;;;;17.26;62.53;103341.94;2361770;74;51267;-76
2023/01/24 07:21:17;;;;;;;;;;;;;;;17.27;62.44;103350.36;2358596;74;50277;-76
2023/01/24 07:24:20;;;;;;;;;;;;;;;17.35;62.19;103354.68;2337232;75;50177;-75
2023/01/24 07:27:22;;;;;;;;;;;;;;;17.39;62.01;103350.80;2323570;76;52296;-76
2023/01/24 07:30:23;;;;;;;;;;;;;;;17.39;61.97;103350.80;2343461;76;50287;-76
2023/01/24 07:33:25;;;;;;;;;;;;;;;17.40;61.89;103356.06;2339955;76;50599;-77
2023/01/24 07:36:27;;;;;;;;;;;;;;;17.37;61.96;103358.11;2340179;76;51542;-77
2023/01/24 07:39:33;;;;;;;;;;;;;;;17.34;61.99;103363.66;2307916;76;52556;-77
2023/01/24 07:42:32;;;;;;;;;;;;;;;17.29;62.02;103364.45;2306988;76;22513;-76
2023/01/24 07:45:35;;;;;;;;;;;;;;;17.19;62.29;103360.27;2356503;74;51409;-76
2023/01/24 07:48:36;;;;;;;;;;;;;;;17.09;62.59;103363.20;2345180;75;22394;-77
2023/01/24 07:51:42;;;;;;;;;;;;;;;17.03;62.72;103361.81;2365408;74;51072;-77
2023/01/24 07:54:48;;;;;;;;;;;;;;;17.04;62.82;103353.31;2349947;75;22087;-76
2023/01/24 07:58:05;;;;;;;;;;;;;;;17.10;62.60;103348.85;2347308;74;22476;-77
2023/01/24 08:01:08;;;;;;;;;;;;;;;17.26;62.00;103349.97;2308425;76;21757;-80
2023/01/24 08:04:10;;;;;;;;;;;;;;;17.33;61.81;103345.90;2238593;76;51652;-81
2023/01/24 08:07:18;;;;;;;;;;;;;;;17.33;61.89;103361.47;2273461;77;51354;-81
2023/01/24 08:10:21;;;;;;;;;;;;;;;17.37;61.71;103364.31;2292645;77;50876;-81
2023/01/24 08:13:23;;;;;;;;;;;;;;;17.38;61.67;103359.81;2288623;77;51309;-81
2023/01/24 08:16:26;;;;;;;;;;;;;;;17.43;61.41;103363.50;2268083;76;51517;-80
2023/01/24 08:19:27;;;;;;;;;;;;;;;17.39;61.42;103374.89;2286519;77;52133;-78
2023/01/24 08:22:29;;;;;;;;;;;;;;;17.36;61.37;103371.95;2292442;77;50715;-81
2023/01/24 08:25:31;;;;;;;;;;;;;;;17.34;61.44;103385.06;2319740;75;50780;-77
2023/01/24 08:28:33;;;;;;;;;;;;;;;17.31;61.50;103378.11;2376900;74;51177;-77
2023/01/24 08:31:35;;;;;;;;;;;;;;;17.28;61.53;103380.16;2318037;74;50325;-77
2023/01/24 08:34:36;;;;;;;;;;;;;;;17.24;61.59;103377.31;2340760;74;51374;-80
2023/01/24 08:37:38;;;;;;;;;;;;;;;17.25;61.60;103377.70;2358406;75;51410;-78
2023/01/24 08:40:40;;;;;;;;;;;;;;;17.31;61.35;103383.45;2320933;75;52293;-78
2023/01/24 08:43:42;;;;;;;;;;;;;;;17.41;61.18;103379.66;2310893;76;50899;-78
2023/01/24 08:46:43;;;;;;;;;;;;;;;17.46;61.11;103370.82;2322050;76;50337;-77
2023/01/24 08:49:46;;;;;;;;;;;;;;;17.42;61.24;103374.70;2337144;75;50266;-78
2023/01/24 08:52:48;;;;;;;;;;;;;;;17.43;61.16;103380.41;2337815;74;52370;-76
2023/01/24 08:55:49;;;;;;;;;;;;;;;17.41;61.12;103375.64;2322400;76;51501;-77
2023/01/24 08:58:51;;;;;;;;;;;;;;;17.34;60.17;103374.36;2322320;76;50011;-77
2023/01/24 09:01:53;;;;;;;;;;;;;;;17.33;60.28;103374.84;2333960;76;50242;-77
2023/01/24 09:04:54;;;;;;;;;;;;;;;17.31;60.36;103375.92;2299817;76;52319;-77
2023/01/24 09:07:56;;;;;;;;;;;;;;;17.28;60.46;103369.45;2328531;74;50219;-77
2023/01/24 09:10:58;;;;;;;;;;;;;;;17.25;60.60;103379.89;2368034;74;52385;-77
2023/01/24 09:14:00;;;;;;;;;;;;;;;17.14;60.97;103378.45;2345981;76;51430;-78
2023/01/24 09:17:01;;;;;;;;;;;;;;;17.09;61.13;103378.77;2326326;75;51186;-77
2023/01/24 09:20:03;;;;;;;;;;;;;;;17.15;60.84;103372.98;2325709;76;50273;-77
2023/01/24 09:23:09;;;;;;;;;;;;;;;17.24;60.54;103379.53;2325354;76;49724;-77
2023/01/24 09:26:10;;;;;;;;;;;;;;;17.34;60.25;103381.05;2345709;76;51408;-79
2023/01/24 09:29:12;;;;;;;;;;;;;;;17.40;60.00;103382.83;2299785;76;52465;-79
2023/01/24 09:32:13;;;;;;;;;;;;;;;17.45;59.87;103378.48;2345438;76;50389;-79
2023/01/24 09:35:15;;;;;;;;;;;;;;;17.43;59.93;103384.42;2345385;76;50304;-79
2023/01/24 09:38:17;;;;;;;;;;;;;;;17.44;59.80;103387.47;2345502;76;50370;-79
2023/01/24 09:41:21;;;;;;;;;;;;;;;17.46;59.77;103384.69;2369028;74;50604;-77
2023/01/24 09:44:24;;;;;;;;;;;;;;;17.39;59.96;103390.49;2354939;74;51550;-77
2023/01/24 09:47:36;;;;;;;;;;;;;;;17.33;60.15;103387.38;2363321;74;51402;-79
2023/01/24 09:50:39;;;;;;;;;;;;;;;17.32;60.17;103389.20;2386816;74;50706;-79
2023/01/24 09:53:45;;;;;;;;;;;;;;;17.27;60.41;103383.81;2386579;74;51558;-78
2023/01/24 09:56:46;;;;;;;;;;;;;;;17.16;60.72;103380.52;2393900;74;52481;-78
2023/01/24 09:59:50;;;;;;;;;;;;;;;17.14;60.77;103387.33;2386800;74;51672;-79
2023/01/24 10:02:53;;;;;;;;;;;;;;;17.18;60.65;103382.13;2386494;74;51531;-78
2023/01/24 10:05:56;;;;;;;;;;;;;;;17.32;60.17;103369.63;2384281;74;50666;-79
2023/01/24 10:09:09;;;;;;;;;;;;;;;17.43;59.84;103372.88;2343738;74;51222;-78
2023/01/24 10:12:18;;;;;;;;;;;;;;;17.45;59.78;103358.41;2345728;76;50749;-78
2023/01/24 10:15:38;;;;;;;;;;;;;;;17.48;59.75;103357.34;2325533;76;51638;-79
2023/01/24 10:18:42;;;;;;;;;;;;;;;17.48;59.77;103354.17;2359849;74;51590;-79
2023/01/24 10:21:45;;;;;;;;;;;;;;;17.48;59.73;103348.82;2365646;74;51718;-79
2023/01/24 10:24:48;;;;;;;;;;;;;;;17.45;59.76;103342.36;2386688;74;50658;-79
2023/01/24 10:27:50;;;;;;;;;;;;;;;17.41;59.97;103338.17;2387084;74;50670;-79
2023/01/24 10:31:03;;;;;;;;;;;;;;;17.35;60.15;103335.45;2387047;74;50774;-80
2023/01/24 10:34:06;;;;;;;;;;;;;;;17.30;60.38;103336.27;2366243;74;51605;-79
2023/01/24 10:37:12;;;;;;;;;;;;;;;17.25;60.57;103340.23;2376382;74;52213;-80
2023/01/24 10:40:14;;;;;;;;;;;;;;;17.22;60.70;103344.48;2359185;74;52088;-79
2023/01/24 10:43:16;;;;;;;;;;;;;;;17.22;60.89;103340.46;2348940;76;50183;-79
2023/01/24 10:46:36;;;;;;;;;;;;;;;17.29;60.68;103330.55;2327530;75;51126;-78
2023/01/24 10:49:39;;;;;;;;;;;;;;;17.24;61.03;103343.86;2347895;76;50740;-80
2023/01/24 10:52:41;;;;;;;;;;;;;;;17.31;60.86;103339.30;2346390;73;52516;-80
2023/01/24 10:55:42;;;;;;;;;;;;;;;17.33;60.93;103336.53;2348715;76;50784;-79
2023/01/24 10:59:00;;;;;;;;;;;;;;;17.34;60.86;103343.58;2340912;74;51704;-79
2023/01/24 11:02:02;;;;;;;;;;;;;;;17.35;60.74;103338.13;2363068;74;50620;-79
2023/01/24 11:05:05;;;;;;;;;;;;;;;17.44;60.50;103341.11;2350199;75;50311;-80
2023/01/24 11:08:12;;;;;;;;;;;;;;;17.29;61.29;103345.27;2332827;75;50581;-78
2023/01/24 11:11:26;;;;;;;;;;;;;;;17.20;61.54;103348.58;2342059;75;21841;-78
2023/01/24 11:14:28;;;;;;;;;;;;;;;17.12;61.86;103347.78;2343117;75;21672;-80
2023/01/24 11:17:31;;;;;;;;;;;;;;;17.10;61.95;103344.84;2347670;75;51397;-80
2023/01/24 11:20:34;;;;;;;;;;;;;;;17.09;61.97;103337.79;2342773;75;50767;-80
2023/01/24 11:23:36;;;;;;;;;;;;;;;17.13;61.77;103342.80;2344889;74;52780;-80
2023/01/24 11:26:38;;;;;;;;;;;;;;;17.28;61.40;103342.20;2323280;76;50420;-80
2023/01/24 11:29:40;;;;;;;;;;;;;;;17.33;61.32;103329.84;2337225;75;50841;-81
2023/01/24 11:32:59;;;;;;;;;;;;;;;17.35;61.30;103330.59;2349298;75;50690;-81
2023/01/24 11:36:06;;;;;;;;;;;;;;;17.35;61.36;103322.56;2313513;76;51228;-81
2023/01/24 11:39:09;;;;;;;;;;;;;;;17.35;61.35;103327.92;2355470;75;49961;-81
2023/01/24 11:42:12;;;;;;;;;;;;;;;17.30;61.51;103324.71;2323082;76;51519;-80
2023/01/24 11:45:22;;;;;;;;;;;;;;;17.27;61.66;103316.91;2331295;75;51468;-80
2023/01/24 11:48:25;;;;;;;;;;;;;;;17.27;61.42;103319.09;2317917;76;49671;-80
2023/01/24 11:51:45;;;;;;;;;;;;;;;17.15;61.73;103314.12;2323661;76;50658;-80
2023/01/24 11:55:04;;;;;;;;;;;;;;;17.09;62.01;103321.74;2323620;76;51612;-80
2023/01/24 11:58:13;;;;;;;;;;;;;;;17.15;61.95;103322.63;2323637;75;51299;-79
2023/01/24 12:01:17;;;;;;;;;;;;;;;17.24;61.74;103309.08;2310762;76;51175;-80
2023/01/24 12:04:23;;;;;;;;;;;;;;;17.30;61.64;103314.01;2324856;75;49926;-78
2023/01/24 12:07:42;;;;;;;;;;;;;;;17.28;61.62;103313.25;2325923;76;52446;-80
2023/01/24 12:10:58;;;;;;;;;;;;;;;17.38;61.32;103312.97;2325260;75;50187;-80
2023/01/24 12:14:18;;;;;;;;;;;;;;;17.41;61.08;103315.42;2313940;76;50124;-78
2023/01/24 12:17:25;;;;;;;;;;;;;;;17.39;61.26;103305.30;2337619;75;22104;-78
2023/01/24 12:20:45;;;;;;;;;;;;;;;17.32;61.39;103297.37;2321432;76;51692;-78
2023/01/24 12:24:04;;;;;;;;;;;;;;;17.25;61.62;103293.41;2325440;76;50525;-78
2023/01/24 12:27:10;;;;;;;;;;;;;;;17.27;61.38;103295.50;2323934;75;21757;-78
2023/01/24 12:30:20;;;;;;;;;;;;;;;17.30;61.41;103292.59;2324958;76;51584;-79
2023/01/24 12:33:31;;;;;;;;;;;;;;;17.31;61.23;103295.63;2324683;75;51513;-77
2023/01/24 12:36:40;;;;;;;;;;;;;;;17.24;61.57;103295.70;2327265;75;22731;-78
2023/01/24 12:39:46;;;;;;;;;;;;;;;17.25;61.65;103292.92;2324366;75;22400;-81
2023/01/24 12:42:49;;;;;;;;;;;;;;;17.24;61.74;103293.02;2318910;76;50981;-83
2023/01/24 12:45:58;;;;;;;;;;;;;;;17.17;61.85;103290.80;2330325;75;50787;-82
2023/01/24 12:49:01;;;;;;;;;;;;;;;17.26;61.67;103293.77;2314199;76;51728;-80
2023/01/24 12:52:08;;;;;;;;;;;;;;;17.39;61.28;103301.28;2298024;76;50127;-80
2023/01/24 12:55:11;;;;;;;;;;;;;;;17.49;60.98;103304.16;2323134;76;51520;-81
2023/01/24 12:58:23;;;;;;;;;;;;;;;17.58;60.72;103308.37;2323783;76;50756;-80
2023/01/24 13:01:27;;;;;;;;;;;;;;;17.66;60.52;103296.25;2323724;75;51565;-81
2023/01/24 13:04:36;;;;;;;;;;;;;;;17.70;60.28;103294.59;2313190;76;50117;-79
2023/01/24 13:07:39;;;;;;;;;;;;;;;17.75;60.21;103291.55;2348025;75;50776;-82
2023/01/24 13:10:51;;;;;;;;;;;;;;;17.82;60.01;103289.67;2346296;74;50965;-81
2023/01/24 13:13:54;;;;;;;;;;;;;;;17.87;59.91;103283.98;2334875;75;50709;-81
2023/01/24 13:16:58;;;;;;;;;;;;;;;17.90;59.97;103291.78;2338372;76;50075;-80
2023/01/24 13:20:01;;;;;;;;;;;;;;;18.02;59.77;103288.20;2335018;75;50445;-80
2023/01/24 13:23:07;;;;;;;;;;;;;;;18.12;59.66;103289.70;2335146;75;51583;-81
2023/01/24 13:26:10;;;;;;;;;;;;;;;18.19;59.39;103294.13;2322529;76;50782;-81
2023/01/24 13:29:14;;;;;;;;;;;;;;;18.26;59.15;103289.98;2340166;76;51193;-79
2023/01/24 13:32:16;;;;;;;;;;;;;;;18.18;59.28;103279.85;2356104;75;50775;-80
2023/01/24 13:35:18;;;;;;;;;;;;;;;18.12;59.56;103286.18;2344554;75;50763;-79
2023/01/24 13:38:23;;;;;;;;;;;;;;;18.06;59.69;103282.99;2358363;75;51406;-80
2023/01/24 13:41:28;;;;;;;;;;;;;;;17.96;60.05;103281.97;2373013;75;50758;-78
2023/01/24 13:44:33;;;;;;;;;;;;;;;17.93;60.15;103279.53;2366302;75;22315;-78
2023/01/24 13:47:34;;;;;;;;;;;;;;;17.92;59.94;103272.94;2373967;75;51674;-78
2023/01/24 13:50:36;;;;;;;;;;;;;;;17.90;59.96;103278.88;2374144;74;50605;-78
2023/01/24 13:53:56;;;;;;;;;;;;;;;17.92;59.77;103273.78;2374370;75;50254;-78
2023/01/24 13:57:06;;;;;;;;;;;;;;;18.00;59.48;103271.38;2375079;75;51522;-76
2023/01/24 14:00:09;;;;;;;;;;;;;;;18.06;59.30;103274.95;2373977;75;50071;-75
2023/01/24 14:03:28;;;;;;;;;;;;;;;18.11;59.21;103275.95;2371482;74;50408;-75
2023/01/24 14:06:40;;;;;;;;;;;;;;;18.16;59.00;103271.56;2341326;75;51744;-75
2023/01/24 14:09:42;;;;;;;;;;;;;;;18.26;58.74;103276.59;2335505;75;50759;-76
2023/01/24 14:12:45;;;;;;;;;;;;;;;18.27;58.67;103272.95;2360801;75;50728;-75
2023/01/24 14:15:47;;;;;;;;;;;;;;;18.30;58.52;103268.70;2359072;75;50287;-75
2023/01/24 14:18:52;;;;;;;;;;;;;;;18.25;58.58;103265.52;2335007;75;51621;-74
2023/01/24 14:22:00;;;;;;;;;;;;;;;18.16;58.71;103271.09;2360368;75;52161;-74
2023/01/24 14:25:06;;;;;;;;;;;;;;;18.12;58.82;103271.44;2360327;75;51518;-75
2023/01/24 14:28:16;;;;;;;;;;;;;;;18.06;58.80;103280.31;2357988;75;50831;-75
2023/01/24 14:31:24;;;;;;;;;;;;;;;18.03;58.79;103269.83;2320961;75;50097;-75
2023/01/24 14:34:30;;;;;;;;;;;;;;;18.01;58.81;103274.45;2359834;75;50649;-75
2023/01/24 14:37:32;;;;;;;;;;;;;;;18.01;58.80;103270.92;2352608;75;50394;-75
2023/01/24 14:40:33;;;;;;;;;;;;;;;18.04;58.67;103271.53;2336106;75;51490;-75
2023/01/24 14:43:38;;;;;;;;;;;;;;;18.07;58.59;103271.78;2297857;76;51577;-75
2023/01/24 14:46:40;;;;;;;;;;;;;;;18.11;58.38;103277.75;2322262;75;51404;-75
2023/01/24 14:49:45;;;;;;;;;;;;;;;18.13;58.34;103279.34;2322497;76;51413;-75
2023/01/24 14:52:46;;;;;;;;;;;;;;;18.13;58.22;103273.14;2298128;76;50396;-75
2023/01/24 14:55:48;;;;;;;;;;;;;;;18.26;57.93;103274.80;2272646;76;51624;-75
2023/01/24 14:58:50;;;;;;;;;;;;;;;18.27;57.87;103275.14;2322473;75;51631;-75
2023/01/24 15:01:52;;;;;;;;;;;;;;;18.28;57.85;103268.80;2322434;76;50029;-75
2023/01/24 15:04:54;;;;;;;;;;;;;;;18.32;57.81;103272.61;2322500;75;50502;-75
2023/01/24 15:07:55;;;;;;;;;;;;;;;18.39;57.62;103269.80;2309738;75;51625;-74
2023/01/24 15:10:59;;;;;;;;;;;;;;;18.39;57.51;103269.31;2331614;75;50649;-74
2023/01/24 15:14:01;;;;;;;;;;;;;;;18.41;57.47;103263.84;2374596;74;51580;-75
2023/01/24 15:17:03;;;;;;;;;;;;;;;18.37;57.56;103263.24;2375625;75;51481;-75
2023/01/24 15:20:08;;;;;;;;;;;;;;;18.33;57.59;103263.09;2313717;75;51635;-75
2023/01/24 15:23:11;;;;;;;;;;;;;;;18.27;57.70;103264.42;2374923;75;51507;-75
2023/01/24 15:26:27;;;;;;;;;;;;;;;18.18;57.83;103257.56;2374505;73;50708;-75
2023/01/24 15:29:38;;;;;;;;;;;;;;;18.10;58.00;103258.64;2373631;75;50772;-75
2023/01/24 15:32:41;;;;;;;;;;;;;;;18.07;58.08;103263.75;2339391;75;51702;-75
2023/01/24 15:35:46;;;;;;;;;;;;;;;18.07;58.06;103258.39;2339324;75;50754;-75
2023/01/24 15:38:52;;;;;;;;;;;;;;;18.09;58.00;103248.41;2349265;75;50778;-75
2023/01/24 15:45:17;;;;;;;;;;;;;;;18.17;57.83;103255.38;2334747;76;22395;-75
2023/01/24 15:48:24;;;;;;;;;;;;;;;18.23;57.73;103262.09;2334841;76;51579;-76
2023/01/24 15:51:33;;;;;;;;;;;;;;;18.27;57.99;103267.11;2333213;75;51543;-75
2023/01/24 15:54:36;;;;;;;;;;;;;;;18.31;58.03;103256.99;2332387;75;50978;-75
2023/01/24 15:57:38;;;;;;;;;;;;;;;18.27;58.24;103263.58;2299090;76;51162;-75
2023/01/24 16:00:39;;;;;;;;;;;;;;;18.27;58.29;103252.86;2333211;75;51611;-74
2023/01/24 16:03:41;;;;;;;;;;;;;;;18.23;58.52;103247.34;2331975;75;51407;-75
2023/01/24 16:06:43;;;;;;;;;;;;;;;18.19;58.58;103245.89;2324212;75;52293;-75
2023/01/24 16:09:45;;;;;;;;;;;;;;;18.13;58.71;103243.66;2327706;75;52308;-75
2023/01/24 16:12:47;;;;;;;;;;;;;;;18.10;58.87;103230.50;2334192;75;50700;-75
2023/01/24 16:15:52;;;;;;;;;;;;;;;18.06;58.96;103228.56;2360016;75;50453;-75
2023/01/24 16:18:51;;;;;;;;;;;;;;;18.04;59.17;103227.32;2359017;75;22302;-75
2023/01/24 16:21:58;;;;;;;;;;;;;;;18.08;59.14;103224.41;2302867;75;52369;-76